createdAt,value
2022-09-04T00:00:15.808Z,90.79
2022-09-04T00:02:58.368Z,91.80
2022-09-04T00:05:37.777Z,91.29
2022-09-04T00:08:38.991Z,91.76
2022-09-04T00:11:15.462Z,90.98
2022-09-04T00:13:55.219Z,91.48
2022-09-04T00:16:27.220Z,91.90
2022-09-04T00:19:20.144Z,91.56
2022-09-04T00:22:00.336Z,91.55
2022-09-04T00:24:32.554Z,92.17
2022-09-04T00:27:10.374Z,92.98
2022-09-04T00:30:07.383Z,92.55
2022-09-04T00:32:45.532Z,93.35
2022-09-04T00:35:14.965Z,93.26
2022-09-04T00:37:52.740Z,93.36
2022-09-04T00:40:31.290Z,92.57
2022-09-04T00:43:07.022Z,92.75
2022-09-04T00:45:51.086Z,93.69
2022-09-04T00:48:47.330Z,93.83
2022-09-04T00:51:22.580Z,93.76
2022-09-04T00:54:09.210Z,93.27
2022-09-04T00:56:53.209Z,94.04
2022-09-04T00:59:30.724Z,94.25
2022-09-04T01:02:07.776Z,94.76
2022-09-04T01:04:51.813Z,94.56
2022-09-04T01:07:56.698Z,94.51
2022-09-04T01:10:42.641Z,94.16
2022-09-04T01:13:18.892Z,94.31
2022-09-04T01:16:01.313Z,93.89
2022-09-04T01:18:44.043Z,94.44
2022-09-04T01:21:13.778Z,94.35
2022-09-04T01:24:10.633Z,94.92
2022-09-04T01:26:46.823Z,95.37
2022-09-04T01:29:18.904Z,94.75
2022-09-04T01:32:10.279Z,95.55
2022-09-04T01:35:08.929Z,95.11
2022-09-04T01:37:48.025Z,94.76
2022-09-04T01:40:40.083Z,94.96
2022-09-04T01:43:21.064Z,94.91
2022-09-04T01:46:15.925Z,95.46
2022-09-04T01:48:45.644Z,94.40
2022-09-04T01:51:28.110Z,94.63
2022-09-04T01:54:18.072Z,94.40
2022-09-04T01:57:19.083Z,94.68
2022-09-04T01:59:53.751Z,94.62
2022-09-04T02:02:57.818Z,94.02
2022-09-04T02:05:36.585Z,94.05
2022-09-04T02:08:18.801Z,95.14
2022-09-04T02:11:09.354Z,95.29
2022-09-04T02:13:57.204Z,96.51
2022-09-04T02:16:57.203Z,96.48
2022-09-04T02:19:48.134Z,95.92
2022-09-04T02:22:44.910Z,95.80
2022-09-04T02:25:30.234Z,96.00
2022-09-04T02:28:09.320Z,96.18
2022-09-04T02:30:51.069Z,96.85
2022-09-04T02:33:35.393Z,97.40
2022-09-04T02:36:29.494Z,97.06
2022-09-04T02:39:14.987Z,96.94
2022-09-04T02:41:58.173Z,96.87
2022-09-04T02:44:58.138Z,96.57
2022-09-04T02:47:37.344Z,96.14
2022-09-04T02:50:26.242Z,96.91
2022-09-04T02:53:18.334Z,96.54
2022-09-04T02:56:13.836Z,96.71
2022-09-04T02:58:50.024Z,96.91
2022-09-04T03:01:51.787Z,97.21
2022-09-04T03:04:33.882Z,97.54
2022-09-04T03:07:13.472Z,97.12
2022-09-04T03:09:47.874Z,97.80
2022-09-04T03:12:55.815Z,97.35
2022-09-04T03:15:29.350Z,98.44
2022-09-04T03:18:21.187Z,97.88
2022-09-04T03:21:19.212Z,97.93
2022-09-04T03:23:52.439Z,97.99
2022-09-04T03:26:56.538Z,97.95
2022-09-04T03:29:44.867Z,97.85
2022-09-04T03:32:27.108Z,97.61
2022-09-04T03:35:03.499Z,97.60
2022-09-04T03:37:50.369Z,97.91
2022-09-04T03:40:35.595Z,98.47
2022-09-04T03:43:31.462Z,98.60
2022-09-04T03:46:01.429Z,98.62
2022-09-04T03:48:49.444Z,97.86
2022-09-04T03:51:33.183Z,97.69
2022-09-04T03:54:06.334Z,97.66
2022-09-04T03:56:47.319Z,97.59
2022-09-04T03:59:37.909Z,97.87
2022-09-04T04:02:29.730Z,96.95
2022-09-04T04:05:15.536Z,96.60
2022-09-04T04:08:17.512Z,96.61
2022-09-04T04:10:52.646Z,96.97
2022-09-04T04:13:48.613Z,97.15
2022-09-04T04:16:31.159Z,97.17
2022-09-04T04:19:10.829Z,97.70
2022-09-04T04:22:02.110Z,97.45
2022-09-04T04:24:54.207Z,97.24
2022-09-04T04:27:36.212Z,97.16
2022-09-04T04:30:14.049Z,97.43
2022-09-04T04:32:49.935Z,97.27
2022-09-04T04:35:41.459Z,96.55
2022-09-04T04:38:19.849Z,97.51
2022-09-04T04:41:10.450Z,96.69
2022-09-04T04:44:02.926Z,96.51
2022-09-04T04:47:04.106Z,97.48
2022-09-04T04:50:13.437Z,97.51
2022-09-04T04:52:56.145Z,98.07
2022-09-04T04:55:38.681Z,98.54
2022-09-04T04:58:05.679Z,99.67
2022-09-04T05:00:39.117Z,98.86
2022-09-04T05:03:35.034Z,98.98
2022-09-04T05:06:24.999Z,99.78
2022-09-04T05:09:14.630Z,98.81
2022-09-04T05:11:59.422Z,99.23
2022-09-04T05:14:39.441Z,98.59
2022-09-04T05:17:14.058Z,99.19
2022-09-04T05:19:55.535Z,98.04
2022-09-04T05:22:38.758Z,97.44
2022-09-04T05:25:16.252Z,97.73
2022-09-04T05:28:01.119Z,97.14
2022-09-04T05:30:52.120Z,95.81
2022-09-04T05:33:34.490Z,96.50
2022-09-04T05:36:30.315Z,96.85
2022-09-04T05:39:16.046Z,95.74
2022-09-04T05:42:08.545Z,95.10
2022-09-04T05:44:50.769Z,94.58
2022-09-04T05:47:36.175Z,94.27
2022-09-04T05:50:36.666Z,93.21
2022-09-04T05:53:29.974Z,93.42
2022-09-04T05:56:19.016Z,93.19
2022-09-04T05:58:55.871Z,93.17
2022-09-04T06:02:01.897Z,92.53
2022-09-04T06:05:09.573Z,91.55
2022-09-04T06:08:02.675Z,91.59
2022-09-04T06:10:48.326Z,91.48
2022-09-04T06:13:18.345Z,91.83
2022-09-04T06:15:52.113Z,91.24
2022-09-04T06:18:31.319Z,90.52
2022-09-04T06:21:08.247Z,90.11
2022-09-04T06:23:41.440Z,89.40
2022-09-04T06:26:24.717Z,89.48
2022-09-04T06:29:05.811Z,90.70
2022-09-04T06:31:44.261Z,88.86
2022-09-04T06:34:14.250Z,88.50
2022-09-04T06:37:18.609Z,88.87
2022-09-04T06:40:22.718Z,87.77
2022-09-04T06:43:03.785Z,87.70
2022-09-04T06:45:42.068Z,87.53
2022-09-04T06:48:24.330Z,86.43
2022-09-04T06:51:22.035Z,86.78
2022-09-04T06:54:13.838Z,86.25
2022-09-04T06:56:55.742Z,85.66
2022-09-04T06:59:44.616Z,86.03
2022-09-04T07:02:21.270Z,85.81
2022-09-04T07:05:16.501Z,84.59
2022-09-04T07:08:02.516Z,84.56
2022-09-04T07:10:43.465Z,84.44
2022-09-04T07:13:50.647Z,84.22
2022-09-04T07:16:34.912Z,83.53
2022-09-04T07:19:24.077Z,83.36
2022-09-04T07:22:22.891Z,82.63
2022-09-04T07:25:11.653Z,81.99
2022-09-04T07:28:02.511Z,81.10
2022-09-04T07:30:36.841Z,80.67
2022-09-04T07:33:15.212Z,81.03
2022-09-04T07:36:07.940Z,80.54
2022-09-04T07:38:43.695Z,78.51
2022-09-04T07:41:55.367Z,79.05
2022-09-04T07:44:30.175Z,78.43
2022-09-04T07:47:22.185Z,79.20
2022-09-04T07:50:05.554Z,79.36
2022-09-04T07:52:50.301Z,79.19
2022-09-04T07:55:36.076Z,79.25
2022-09-04T07:58:21.076Z,80.08
2022-09-04T08:01:06.917Z,74.53
2022-09-04T08:04:07.215Z,78.32
2022-09-04T08:06:49.028Z,76.57
2022-09-04T08:09:38.610Z,80.45
2022-09-04T08:12:20.789Z,76.75
2022-09-04T08:15:05.789Z,75.31
2022-09-04T08:18:03.180Z,75.51
2022-09-04T08:20:49.274Z,74.19
2022-09-04T08:23:40.140Z,75.67
2022-09-04T08:26:32.726Z,73.28
2022-09-04T08:29:03.011Z,74.77
2022-09-04T08:31:35.970Z,72.85
2022-09-04T08:34:19.071Z,72.91
2022-09-04T08:37:06.317Z,69.16
2022-09-04T08:39:52.087Z,66.41
2022-09-04T08:42:51.771Z,74.39
2022-09-04T08:45:43.861Z,75.94
2022-09-04T08:48:37.832Z,74.98
2022-09-04T08:51:14.263Z,70.96
2022-09-04T08:54:02.449Z,72.76
2022-09-04T08:56:53.388Z,68.43
2022-09-04T08:59:43.634Z,70.64
2022-09-04T09:02:28.740Z,71.23
2022-09-04T09:05:24.046Z,70.05
2022-09-04T09:08:16.277Z,71.98
2022-09-04T09:11:03.226Z,66.03
2022-09-04T09:14:08.046Z,69.79
2022-09-04T09:16:38.750Z,69.12
2022-09-04T09:19:05.760Z,69.92
2022-09-04T09:22:07.808Z,67.96
2022-09-04T09:24:40.998Z,71.28
2022-09-04T09:27:11.204Z,70.41
2022-09-04T09:30:02.026Z,67.78
2022-09-04T09:33:07.577Z,69.43
2022-09-04T09:36:12.130Z,68.87
2022-09-04T09:39:01.005Z,69.76
2022-09-04T09:42:15.235Z,62.67
2022-09-04T09:45:10.232Z,69.62
2022-09-04T09:48:01.272Z,67.90
2022-09-04T09:51:02.669Z,68.46
2022-09-04T09:53:53.090Z,68.45
2022-09-04T09:56:51.755Z,66.71
2022-09-04T09:59:35.006Z,67.61
2022-09-04T10:02:20.110Z,67.71
2022-09-04T10:05:12.063Z,68.87
2022-09-04T10:08:21.857Z,63.55
2022-09-04T10:11:23.703Z,62.10
2022-09-04T10:14:25.340Z,63.64
2022-09-04T10:17:11.156Z,63.03
2022-09-04T10:20:15.703Z,61.40
2022-09-04T10:23:10.043Z,63.81
2022-09-04T10:25:55.694Z,61.59
2022-09-04T10:28:40.787Z,63.05
2022-09-04T10:31:10.613Z,60.73
2022-09-04T10:33:43.843Z,60.06
2022-09-04T10:36:37.665Z,60.64
2022-09-04T10:39:26.544Z,60.62
2022-09-04T10:42:12.895Z,60.15
2022-09-04T10:45:40.647Z,59.75
2022-09-04T10:48:28.657Z,60.18
2022-09-04T10:51:25.394Z,59.02
2022-09-04T10:54:30.278Z,57.67
2022-09-04T10:57:37.247Z,57.29
2022-09-04T11:00:14.875Z,55.94
2022-09-04T11:03:11.269Z,57.46
2022-09-04T11:05:50.951Z,54.34
2022-09-04T11:08:26.886Z,54.19
2022-09-04T11:11:34.274Z,56.01
2022-09-04T11:14:18.728Z,53.46
2022-09-04T11:16:58.077Z,48.81
2022-09-04T11:20:06.850Z,52.56
2022-09-04T11:23:13.228Z,52.59
2022-09-04T11:25:55.482Z,50.25
2022-09-04T11:28:46.594Z,49.35
2022-09-04T11:31:39.883Z,49.67
2022-09-04T11:34:33.686Z,51.47
2022-09-04T11:37:35.268Z,46.21
2022-09-04T11:40:32.127Z,50.21
2022-09-04T11:43:11.066Z,48.05
2022-09-04T11:45:59.392Z,49.26
2022-09-04T11:48:58.263Z,47.22
2022-09-04T11:51:50.834Z,50.44
2022-09-04T11:54:51.581Z,49.41
2022-09-04T11:58:00.556Z,50.57
2022-09-04T12:00:42.921Z,50.12
2022-09-04T12:03:26.554Z,48.08
2022-09-04T12:06:09.382Z,51.70
2022-09-04T12:09:13.948Z,50.17
2022-09-04T12:12:11.331Z,50.96
2022-09-04T12:14:47.558Z,51.28
2022-09-04T12:17:55.033Z,51.19
2022-09-04T12:20:32.825Z,52.12
2022-09-04T12:23:37.496Z,49.50
2022-09-04T12:26:25.318Z,52.69
2022-09-04T12:29:22.461Z,51.31
2022-09-04T12:31:55.294Z,51.78
2022-09-04T12:34:38.414Z,51.57
2022-09-04T12:37:31.147Z,49.44
2022-09-04T12:40:35.798Z,50.29
2022-09-04T12:43:30.913Z,50.28
2022-09-04T12:46:12.892Z,49.83
2022-09-04T12:48:57.965Z,50.48
2022-09-04T12:51:36.253Z,50.05
2022-09-04T12:54:31.663Z,48.27
2022-09-04T12:57:46.588Z,44.99
2022-09-04T13:00:17.466Z,43.79
2022-09-04T13:03:11.243Z,46.33
2022-09-04T13:06:14.010Z,44.54
2022-09-04T13:08:53.293Z,44.92
2022-09-04T13:11:32.210Z,45.40
2022-09-04T13:14:10.809Z,43.70
2022-09-04T13:16:46.638Z,44.17
2022-09-04T13:19:44.875Z,46.64
2022-09-04T13:22:19.901Z,45.65
2022-09-04T13:25:02.471Z,44.80
2022-09-04T13:27:52.725Z,42.13
2022-09-04T13:30:24.434Z,41.85
2022-09-04T13:33:00.490Z,42.75
2022-09-04T13:35:47.290Z,42.42
2022-09-04T13:38:32.743Z,43.65
2022-09-04T13:41:15.642Z,41.04
2022-09-04T13:44:00.544Z,43.71
2022-09-04T13:46:35.151Z,41.88
2022-09-04T13:49:14.818Z,44.24
2022-09-04T13:51:47.978Z,43.22
2022-09-04T13:54:33.730Z,43.28
2022-09-04T13:57:13.308Z,42.18
2022-09-04T13:59:41.295Z,42.91
2022-09-04T14:02:14.323Z,42.93
2022-09-04T14:04:50.947Z,43.10
2022-09-04T14:07:27.154Z,43.45
2022-09-04T14:09:58.246Z,43.75
2022-09-04T14:12:42.544Z,40.61
2022-09-04T14:15:36.009Z,41.53
2022-09-04T14:18:16.171Z,42.18
2022-09-04T14:20:52.370Z,42.31
2022-09-04T14:23:32.458Z,42.87
2022-09-04T14:26:37.213Z,43.44
2022-09-04T14:29:44.704Z,41.21
2022-09-04T14:32:41.904Z,41.03
2022-09-04T14:35:21.146Z,40.51
2022-09-04T14:37:56.973Z,39.54
2022-09-04T14:40:33.809Z,39.89
2022-09-04T14:43:22.296Z,41.61
2022-09-04T14:46:07.807Z,41.60
2022-09-04T14:48:40.384Z,40.51
2022-09-04T14:51:35.025Z,40.38
2022-09-04T14:54:03.808Z,40.18
2022-09-04T14:56:42.626Z,41.72
2022-09-04T14:59:19.293Z,41.76
2022-09-04T15:02:12.546Z,42.56
2022-09-04T15:04:51.684Z,43.50
2022-09-04T15:07:43.670Z,42.27
2022-09-04T15:10:16.594Z,42.72
2022-09-04T15:13:05.338Z,41.52
2022-09-04T15:15:46.707Z,42.32
2022-09-04T15:18:40.473Z,43.62
2022-09-04T15:21:17.266Z,44.01
2022-09-04T15:24:26.568Z,44.46
2022-09-04T15:27:19.896Z,44.85
2022-09-04T15:29:52.765Z,44.43
2022-09-04T15:32:26.001Z,42.88
2022-09-04T15:35:21.065Z,46.15
2022-09-04T15:37:51.628Z,45.40
2022-09-04T15:40:32.289Z,43.95
2022-09-04T15:43:22.622Z,45.04
2022-09-04T15:45:52.364Z,42.04
2022-09-04T15:48:30.097Z,40.75
2022-09-04T15:51:20.498Z,41.75
2022-09-04T15:54:15.883Z,41.24
2022-09-04T15:56:53.779Z,39.94
2022-09-04T15:59:35.286Z,41.49
2022-09-04T16:02:36.841Z,41.84
2022-09-04T16:05:20.610Z,43.65
2022-09-04T16:08:03.815Z,42.45
2022-09-04T16:10:48.648Z,44.72
2022-09-04T16:13:24.929Z,42.02
2022-09-04T16:16:04.233Z,42.50
2022-09-04T16:18:37.611Z,41.15
2022-09-04T16:21:14.944Z,41.85
2022-09-04T16:23:43.103Z,41.75
2022-09-04T16:26:22.741Z,39.88
2022-09-04T16:29:09.069Z,39.78
2022-09-04T16:31:36.797Z,39.84
2022-09-04T16:34:24.207Z,41.10
2022-09-04T16:37:09.822Z,41.09
2022-09-04T16:40:05.099Z,42.49
2022-09-04T16:42:44.013Z,41.20
2022-09-04T16:45:30.214Z,41.02
2022-09-04T16:48:15.775Z,40.98
2022-09-04T16:51:09.930Z,41.79
2022-09-04T16:54:05.515Z,43.89
2022-09-04T16:56:38.241Z,44.44
2022-09-04T16:59:28.589Z,45.62
2022-09-04T17:02:08.865Z,45.51
2022-09-04T17:04:55.597Z,46.37
2022-09-04T17:07:33.254Z,46.35
2022-09-04T17:10:05.261Z,47.10
2022-09-04T17:12:38.035Z,48.22
2022-09-04T17:15:15.877Z,48.70
2022-09-04T17:17:47.145Z,48.54
2022-09-04T17:20:26.502Z,48.33
2022-09-04T17:28:56.956Z,48.27
2022-09-04T17:29:15.424Z,49.58
2022-09-04T17:29:39.458Z,50.21
2022-09-04T17:33:36.895Z,50.42
2022-09-04T17:40:35.642Z,51.39
2022-09-04T17:40:52.232Z,52.34
2022-09-04T17:41:31.231Z,52.10
2022-09-04T17:44:11.173Z,51.97
2022-09-04T17:46:45.155Z,52.84
2022-09-04T17:49:20.510Z,52.19
2022-09-04T17:51:57.474Z,51.77
2022-09-04T17:54:29.032Z,52.49
2022-09-04T17:57:04.330Z,52.88
2022-09-04T18:00:02.137Z,52.92
2022-09-04T18:02:44.454Z,53.04
2022-09-04T18:05:22.159Z,55.29
2022-09-04T18:08:10.016Z,55.76
2022-09-04T18:10:47.697Z,57.05
2022-09-04T18:13:36.138Z,56.94
2022-09-04T18:16:29.313Z,57.32
2022-09-04T18:19:14.178Z,57.20
2022-09-04T18:21:47.761Z,56.83
2022-09-04T18:24:40.607Z,57.32
2022-09-04T18:27:35.629Z,58.26
2022-09-04T18:33:39.875Z,58.27
2022-09-04T18:37:18.390Z,60.02
2022-09-04T18:37:23.202Z,60.58
2022-09-04T18:39:26.260Z,60.58
2022-09-04T18:50:22.854Z,60.87
2022-09-04T18:50:32.335Z,61.61
2022-09-04T18:50:32.849Z,61.54
2022-09-04T18:51:19.339Z,62.38
2022-09-04T18:54:08.759Z,62.55
2022-09-04T18:56:49.659Z,62.78
2022-09-04T18:59:24.643Z,63.43
2022-09-04T19:02:30.465Z,64.04
2022-09-04T19:05:03.288Z,64.67
2022-09-04T19:07:52.391Z,64.25
2022-09-04T19:10:25.530Z,64.51
2022-09-04T19:12:58.593Z,65.57
2022-09-04T19:15:59.198Z,66.35
2022-09-04T19:18:35.035Z,67.12
2022-09-04T19:21:10.720Z,67.80
2022-09-04T19:23:56.129Z,67.69
2022-09-04T19:26:41.175Z,67.77
2022-09-04T19:29:19.226Z,68.13
2022-09-04T19:32:11.153Z,68.45
2022-09-04T19:35:06.184Z,68.34
2022-09-04T19:41:09.161Z,68.45
2022-09-04T19:46:08.069Z,69.47
2022-09-04T19:46:19.140Z,70.83
2022-09-04T19:47:27.195Z,71.06
2022-09-04T19:53:18.885Z,71.80
2022-09-04T19:53:37.828Z,72.22
2022-09-04T19:56:56.684Z,71.54
2022-09-04T19:59:36.843Z,72.26
2022-09-04T20:02:22.501Z,72.27
2022-09-04T20:04:55.610Z,72.78
2022-09-04T20:07:37.191Z,73.76
2022-09-04T20:10:23.319Z,74.02
2022-09-04T20:13:07.848Z,74.61
2022-09-04T20:15:42.028Z,74.30
2022-09-04T20:18:20.991Z,75.49
2022-09-04T20:20:58.765Z,75.59
2022-09-04T20:23:35.063Z,76.54
2022-09-04T20:26:24.220Z,76.76
2022-09-04T20:29:14.956Z,76.83
2022-09-04T20:31:56.480Z,76.90
2022-09-04T20:34:42.136Z,77.08
2022-09-04T20:37:19.109Z,77.37
2022-09-04T20:40:15.703Z,77.84
2022-09-04T20:42:56.657Z,78.69
2022-09-04T20:50:05.022Z,78.34
2022-09-04T20:52:51.379Z,78.82
2022-09-04T20:53:05.798Z,78.76
2022-09-04T20:54:43.971Z,79.67
2022-09-04T21:03:05.220Z,79.46
2022-09-04T21:03:08.356Z,79.71
2022-09-04T21:03:29.569Z,79.52
2022-09-04T21:06:12.510Z,79.58
2022-09-04T21:08:51.464Z,80.32
2022-09-04T21:11:42.087Z,79.67
2022-09-04T21:14:15.057Z,80.53
2022-09-04T21:17:06.815Z,80.32
2022-09-04T21:20:23.081Z,79.91
2022-09-04T21:23:18.159Z,80.96
2022-09-04T21:26:14.666Z,80.79
2022-09-04T21:28:53.053Z,82.29
2022-09-04T21:31:44.618Z,83.44
2022-09-04T21:34:28.903Z,83.88
2022-09-04T21:37:05.533Z,83.20
2022-09-04T21:39:47.961Z,83.05
2022-09-04T21:42:33.726Z,83.83
2022-09-04T21:45:31.580Z,84.75
2022-09-04T21:48:01.370Z,85.15
2022-09-04T21:50:55.132Z,84.89
2022-09-04T21:53:38.354Z,84.58
2022-09-04T22:02:30.592Z,85.15
2022-09-04T22:02:40.458Z,85.04
2022-09-04T22:03:34.905Z,85.77
2022-09-04T22:06:33.156Z,86.00
2022-09-04T22:13:30.802Z,86.64
2022-09-04T22:13:40.448Z,85.80
2022-09-04T22:16:04.712Z,86.21
2022-09-04T22:18:43.569Z,86.76
2022-09-04T22:21:24.670Z,87.25
2022-09-04T22:24:22.749Z,87.51
2022-09-04T22:27:14.923Z,87.66
2022-09-04T22:30:03.642Z,87.90
2022-09-04T22:32:52.501Z,87.88
2022-09-04T22:35:36.048Z,87.98
2022-09-04T22:38:22.162Z,88.84
2022-09-04T22:41:01.479Z,88.58
2022-09-04T22:43:45.308Z,89.60
2022-09-04T22:46:58.949Z,89.80
2022-09-04T22:50:00.874Z,88.95
2022-09-04T22:53:03.787Z,89.43
2022-09-04T22:56:23.573Z,90.34
2022-09-04T22:58:44.750Z,90.43
2022-09-04T23:01:39.997Z,90.59
2022-09-04T23:04:43.778Z,90.31
2022-09-04T23:11:08.346Z,89.31
2022-09-04T23:13:52.839Z,89.31
2022-09-04T23:14:13.440Z,89.40
2022-09-04T23:17:10.800Z,89.34
2022-09-04T23:26:34.980Z,89.27
2022-09-04T23:26:48.840Z,89.00
2022-09-04T23:26:49.611Z,89.80
2022-09-04T23:29:23.681Z,89.14
2022-09-04T23:32:13.203Z,90.13
2022-09-04T23:34:57.717Z,89.94
2022-09-04T23:38:06.547Z,91.36
2022-09-04T23:40:47.010Z,91.55
2022-09-04T23:43:35.726Z,91.98
2022-09-04T23:46:33.683Z,91.05
2022-09-04T23:49:19.646Z,92.18
2022-09-04T23:51:57.146Z,92.64
2022-09-04T23:54:43.044Z,92.36
2022-09-04T23:57:27.237Z,92.47
